createdAt,value
2018-10-01T00:00:21.260Z,931.9
2018-10-01T00:01:21.172Z,931.9
2018-10-01T00:02:21.141Z,932
2018-10-01T00:03:21.621Z,931.9
2018-10-01T00:04:24.590Z,931.8
2018-10-01T00:05:24.500Z,931.8
2018-10-01T00:06:24.389Z,931.7
2018-10-01T00:07:24.312Z,931.4
2018-10-01T00:08:24.657Z,931.7
2018-10-01T00:09:24.571Z,931.8
2018-10-01T00:10:24.481Z,931.8
2018-10-01T00:11:24.611Z,931.8
2018-10-01T00:12:24.530Z,931.8
2018-10-01T00:13:24.438Z,931.7
2018-10-01T00:14:24.347Z,931.7
2018-10-01T00:15:24.245Z,931.7
2018-10-01T00:16:24.200Z,932
2018-10-01T00:17:24.141Z,931.9
2018-10-01T00:18:24.480Z,931.9
2018-10-01T00:19:24.392Z,932
2018-10-01T00:20:24.289Z,931.8
2018-10-01T00:21:24.201Z,931.9
2018-10-01T00:22:24.122Z,932
2018-10-01T00:23:24.035Z,931.9
2018-10-01T00:24:23.944Z,931.9
2018-10-01T00:25:23.847Z,931.9
2018-10-01T00:26:23.752Z,931.9
2018-10-01T00:27:23.668Z,931.9
2018-10-01T00:28:25.015Z,932
2018-10-01T00:29:24.920Z,931.9
2018-10-01T00:30:24.824Z,931.9
2018-10-01T00:31:24.729Z,931.8
2018-10-01T00:32:24.639Z,931.8
2018-10-01T00:33:24.547Z,931.9
2018-10-01T00:34:24.450Z,931.8
2018-10-01T00:35:24.350Z,931.8
2018-10-01T00:36:24.267Z,931.8
2018-10-01T00:37:24.188Z,931.7
2018-10-01T00:38:24.928Z,931.7
2018-10-01T00:39:24.914Z,931.8
2018-10-01T00:40:24.818Z,931.7
2018-10-01T00:41:24.722Z,931.8
2018-10-01T00:42:24.647Z,931.7
2018-10-01T00:43:24.623Z,931.8
2018-10-01T00:44:24.532Z,931.8
2018-10-01T00:45:24.432Z,931.8
2018-10-01T00:46:24.333Z,931.8
2018-10-01T00:47:24.255Z,931.7
2018-10-01T00:48:24.604Z,931.7
2018-10-01T00:49:24.503Z,931.7
2018-10-01T00:50:24.415Z,931.6
2018-10-01T00:51:24.311Z,931.7
2018-10-01T00:52:24.228Z,931.7
2018-10-01T00:53:24.137Z,931.7
2018-10-01T00:54:24.062Z,931.7
2018-10-01T00:55:23.968Z,931.7
2018-10-01T00:56:23.871Z,931.7
2018-10-01T00:57:23.782Z,931.7
2018-10-01T00:58:24.146Z,931.7
2018-10-01T00:59:24.063Z,931.7
2018-10-01T01:00:23.972Z,931.7
2018-10-01T01:01:23.886Z,931.8
2018-10-01T01:02:23.802Z,931.7
2018-10-01T01:03:23.717Z,931.7
2018-10-01T01:04:23.652Z,931.6
2018-10-01T01:05:23.552Z,931.8
2018-10-01T01:06:23.453Z,931.7
2018-10-01T01:07:23.381Z,931.7
2018-10-01T01:08:23.729Z,931.6
2018-10-01T01:09:23.875Z,931.7
2018-10-01T01:10:23.788Z,931.7
2018-10-01T01:11:23.696Z,931.7
2018-10-01T01:12:23.612Z,931.6
2018-10-01T01:13:23.535Z,931.4
2018-10-01T01:14:23.444Z,931.4
2018-10-01T01:15:23.348Z,931.7
2018-10-01T01:16:23.262Z,931.7
2018-10-01T01:17:23.168Z,931.6
2018-10-01T01:18:23.510Z,931.6
2018-10-01T01:19:23.643Z,931.7
2018-10-01T01:20:23.541Z,931.6
2018-10-01T01:21:23.446Z,931.6
2018-10-01T01:22:23.365Z,931.7
2018-10-01T01:23:23.289Z,931.5
2018-10-01T01:24:23.193Z,931.5
2018-10-01T01:25:23.106Z,931.5
2018-10-01T01:26:23.006Z,931.4
2018-10-01T01:27:22.927Z,931.6
2018-10-01T01:28:23.253Z,931.6
2018-10-01T01:29:23.160Z,931.5
2018-10-01T01:30:23.094Z,931.5
2018-10-01T01:31:22.990Z,931.4
2018-10-01T01:32:22.923Z,931.4
2018-10-01T01:33:22.880Z,931.4
2018-10-01T01:34:22.801Z,931.5
2018-10-01T01:35:22.725Z,931.4
2018-10-01T01:36:22.632Z,931.4
2018-10-01T01:37:22.555Z,931.3
2018-10-01T01:38:22.897Z,931.4
2018-10-01T01:39:22.806Z,931.4
2018-10-01T01:40:22.742Z,931.4
2018-10-01T01:41:22.861Z,931.3
2018-10-01T01:42:22.773Z,931.4
2018-10-01T01:43:22.906Z,931.2
2018-10-01T01:44:22.880Z,931.3
2018-10-01T01:45:22.810Z,931.3
2018-10-01T01:46:22.708Z,931.3
2018-10-01T01:47:22.611Z,931.4
2018-10-01T01:48:22.960Z,931.4
2018-10-01T01:49:22.873Z,931.3
2018-10-01T01:50:22.777Z,931.4
2018-10-01T01:51:22.770Z,930.9
2018-10-01T01:52:22.678Z,931.3
2018-10-01T01:53:22.586Z,931.4
2018-10-01T01:54:22.484Z,931
2018-10-01T01:55:22.381Z,931.3
2018-10-01T01:56:22.299Z,931.3
2018-10-01T01:57:22.227Z,931.4
2018-10-01T01:58:22.570Z,931.3
2018-10-01T01:59:22.478Z,931.3
2018-10-01T02:00:22.397Z,931.4
2018-10-01T02:01:22.315Z,931.3
2018-10-01T02:02:22.231Z,930.9
2018-10-01T02:03:22.146Z,931.3
2018-10-01T02:04:22.049Z,931.3
2018-10-01T02:05:21.949Z,931.4
2018-10-01T02:06:21.861Z,931.3
2018-10-01T02:07:21.779Z,931.3
2018-10-01T02:08:22.149Z,931.3
2018-10-01T02:09:22.050Z,931.3
2018-10-01T02:10:21.955Z,931.3
2018-10-01T02:11:21.867Z,931.2
2018-10-01T02:12:21.779Z,931.1
2018-10-01T02:13:21.687Z,931.2
2018-10-01T02:14:21.640Z,931.2
2018-10-01T02:15:21.550Z,931.3
2018-10-01T02:16:21.459Z,931.2
2018-10-01T02:17:21.408Z,931.2
2018-10-01T02:18:21.753Z,931.2
2018-10-01T02:19:21.666Z,931.1
2018-10-01T02:20:21.636Z,930.7
2018-10-01T02:21:21.537Z,931.2
2018-10-01T02:22:21.428Z,931.2
2018-10-01T02:23:21.385Z,931.2
2018-10-01T02:24:21.285Z,931.2
2018-10-01T02:25:21.186Z,931.2
2018-10-01T02:26:21.124Z,931.3
2018-10-01T02:27:21.021Z,931.2
2018-10-01T02:28:21.196Z,931.3
2018-10-01T02:29:20.940Z,931.3
2018-10-01T02:30:20.681Z,930.8
2018-10-01T02:31:20.433Z,931.2
2018-10-01T02:32:20.173Z,931.1
2018-10-01T02:33:19.925Z,931.3
2018-10-01T02:34:19.706Z,931.3
2018-10-01T02:35:19.436Z,931.3
2018-10-01T02:36:19.173Z,931.2
2018-10-01T02:37:18.906Z,931.2
2018-10-01T02:38:19.268Z,931.2
2018-10-01T02:39:19.178Z,931.2
2018-10-01T02:40:19.141Z,931.2
2018-10-01T02:41:19.049Z,931.2
2018-10-01T02:42:18.979Z,931.2
2018-10-01T02:43:18.895Z,931.2
2018-10-01T02:44:18.832Z,930.7
2018-10-01T02:45:18.809Z,931.2
2018-10-01T02:46:18.750Z,931.2
2018-10-01T02:47:18.674Z,931.3
2018-10-01T02:48:19.903Z,931.2
2018-10-01T02:49:19.830Z,931.2
2018-10-01T02:50:19.762Z,931.2
2018-10-01T02:51:19.673Z,931.2
2018-10-01T02:52:19.593Z,931.1
2018-10-01T02:53:19.504Z,931.1
2018-10-01T02:54:19.421Z,931.2
2018-10-01T02:55:19.341Z,931.2
2018-10-01T02:56:19.265Z,931.2
2018-10-01T02:57:19.159Z,931.2
2018-10-01T02:58:19.754Z,931.1
2018-10-01T02:59:19.678Z,931.1
2018-10-01T03:00:19.581Z,931.2
2018-10-01T03:01:19.533Z,931.2
2018-10-01T03:02:19.448Z,931.1
2018-10-01T03:03:19.367Z,931.1
2018-10-01T03:04:19.275Z,931.1
2018-10-01T03:05:19.181Z,931.1
2018-10-01T03:06:19.077Z,930.7
2018-10-01T03:07:19.005Z,931.1
2018-10-01T03:08:19.347Z,931.1
2018-10-01T03:09:19.261Z,931.1
2018-10-01T03:10:19.171Z,931.1
2018-10-01T03:11:19.097Z,931
2018-10-01T03:12:19.645Z,931
2018-10-01T03:13:19.600Z,931
2018-10-01T03:14:19.520Z,931.1
2018-10-01T03:15:19.445Z,930.9
2018-10-01T03:16:19.356Z,931
2018-10-01T03:17:19.295Z,931.1
2018-10-01T03:18:19.621Z,931
2018-10-01T03:19:19.549Z,931
2018-10-01T03:20:19.456Z,930.9
2018-10-01T03:21:19.981Z,931
2018-10-01T03:22:19.988Z,931
2018-10-01T03:23:19.904Z,930.8
2018-10-01T03:24:20.024Z,930.8
2018-10-01T03:25:19.925Z,931
2018-10-01T03:26:19.835Z,930.7
2018-10-01T03:27:19.763Z,930.9
2018-10-01T03:28:20.111Z,931
2018-10-01T03:29:20.061Z,930.5
2018-10-01T03:30:19.986Z,930.9
2018-10-01T03:31:19.929Z,930.9
2018-10-01T03:32:19.866Z,930.9
2018-10-01T03:33:19.785Z,930.8
2018-10-01T03:34:19.709Z,930.9
2018-10-01T03:35:19.625Z,930.9
2018-10-01T03:36:19.528Z,930.8
2018-10-01T03:37:19.446Z,930.8
2018-10-01T03:38:19.631Z,930.8
2018-10-01T03:39:19.370Z,930.9
2018-10-01T03:40:19.583Z,930.9
2018-10-01T03:41:22.464Z,930.8
2018-10-01T03:42:22.230Z,930.8
2018-10-01T03:43:21.982Z,930.9
2018-10-01T03:44:21.717Z,930.8
2018-10-01T03:45:21.462Z,930.8
2018-10-01T03:46:21.211Z,930.8
2018-10-01T03:47:20.959Z,930.8
2018-10-01T03:48:21.134Z,930.8
2018-10-01T03:49:20.876Z,930.8
2018-10-01T03:50:20.615Z,930.9
2018-10-01T03:51:20.355Z,930.9
2018-10-01T03:52:20.107Z,930.8
2018-10-01T03:53:19.848Z,930.8
2018-10-01T03:54:19.598Z,930.8
2018-10-01T03:55:19.344Z,930.8
2018-10-01T03:56:19.092Z,930.7
2018-10-01T03:57:18.846Z,930.8
2018-10-01T03:58:19.208Z,930.8
2018-10-01T03:59:19.120Z,930.7
2018-10-01T04:00:19.029Z,930.7
2018-10-01T04:01:18.946Z,930.8
2018-10-01T04:02:18.873Z,930.8
2018-10-01T04:03:18.833Z,930.8
2018-10-01T04:04:18.742Z,930.7
2018-10-01T04:05:18.900Z,930.8
2018-10-01T04:06:18.827Z,930.8
2018-10-01T04:07:18.762Z,930.8
2018-10-01T04:08:19.103Z,930.9
2018-10-01T04:09:18.846Z,930.8
2018-10-01T04:10:18.804Z,930.7
2018-10-01T04:11:18.543Z,930.9
2018-10-01T04:12:18.300Z,930.8
2018-10-01T04:13:18.048Z,930.9
2018-10-01T04:14:17.788Z,930.9
2018-10-01T04:15:18.213Z,930.9
2018-10-01T04:16:17.948Z,930.9
2018-10-01T04:17:17.698Z,930.9
2018-10-01T04:18:17.885Z,930.9
2018-10-01T04:19:17.633Z,930.9
2018-10-01T04:20:17.369Z,930.9
2018-10-01T04:21:17.122Z,930.8
2018-10-01T04:22:16.891Z,930.9
2018-10-01T04:23:16.846Z,930.5
2018-10-01T04:24:16.601Z,930.9
2018-10-01T04:25:16.556Z,930.9
2018-10-01T04:26:16.313Z,930.9
2018-10-01T04:27:16.067Z,930.8
2018-10-01T04:28:16.674Z,930.8
2018-10-01T04:29:16.692Z,930.8
2018-10-01T04:30:16.440Z,930.9
2018-10-01T04:31:16.183Z,930.8
2018-10-01T04:32:15.934Z,930.8
2018-10-01T04:33:15.674Z,930.8
2018-10-01T04:34:15.410Z,930.8
2018-10-01T04:35:15.378Z,930.8
2018-10-01T04:36:15.121Z,930.9
2018-10-01T04:37:14.871Z,930.8
2018-10-01T04:38:15.229Z,930.9
2018-10-01T04:39:15.189Z,930.9
2018-10-01T04:40:15.085Z,930.8
2018-10-01T04:41:15.017Z,930.8
2018-10-01T04:42:14.956Z,930.9
2018-10-01T04:43:14.856Z,930.9
2018-10-01T04:44:14.774Z,930.8
2018-10-01T04:45:14.679Z,931
2018-10-01T04:46:14.571Z,930.8
2018-10-01T04:47:14.496Z,930.8
2018-10-01T04:48:14.835Z,930.9
2018-10-01T04:49:14.733Z,930.9
2018-10-01T04:50:14.853Z,931
2018-10-01T04:51:14.755Z,930.9
2018-10-01T04:52:14.683Z,930.9
2018-10-01T04:53:14.599Z,931
2018-10-01T04:54:14.510Z,931
2018-10-01T04:55:14.428Z,931
2018-10-01T04:56:14.331Z,930.9
2018-10-01T04:57:14.244Z,931
2018-10-01T04:58:15.413Z,930.9
2018-10-01T04:59:15.457Z,930.5
2018-10-01T05:00:15.371Z,931
2018-10-01T05:01:15.274Z,931
2018-10-01T05:02:15.207Z,931
2018-10-01T05:03:15.113Z,931
2018-10-01T05:04:15.015Z,931
2018-10-01T05:05:14.920Z,931
2018-10-01T05:06:15.753Z,931
2018-10-01T05:07:15.737Z,931
2018-10-01T05:08:16.097Z,931
2018-10-01T05:09:16.004Z,931
2018-10-01T05:10:15.914Z,931
2018-10-01T05:11:15.820Z,931
2018-10-01T05:12:15.769Z,931
2018-10-01T05:13:15.688Z,931
2018-10-01T05:14:15.589Z,930.9
2018-10-01T05:15:15.525Z,931.1
2018-10-01T05:16:15.481Z,931
2018-10-01T05:17:15.401Z,931
2018-10-01T05:18:15.750Z,931
2018-10-01T05:19:15.653Z,931
2018-10-01T05:20:15.551Z,931
2018-10-01T05:21:15.445Z,931
2018-10-01T05:22:15.354Z,931
2018-10-01T05:23:15.282Z,931
2018-10-01T05:24:15.179Z,931
2018-10-01T05:25:15.082Z,931
2018-10-01T05:26:14.996Z,931
2018-10-01T05:27:15.754Z,931.1
2018-10-01T05:28:16.569Z,931
2018-10-01T05:29:16.484Z,930.9
2018-10-01T05:30:16.397Z,931.1
2018-10-01T05:31:16.323Z,931
2018-10-01T05:32:16.235Z,931.1
2018-10-01T05:33:16.157Z,931
2018-10-01T05:34:16.067Z,931
2018-10-01T05:35:15.978Z,931
2018-10-01T05:36:16.330Z,931.1
2018-10-01T05:37:16.248Z,931.1
2018-10-01T05:38:16.817Z,931
2018-10-01T05:39:16.563Z,931.1
2018-10-01T05:40:16.296Z,931.1
2018-10-01T05:41:16.026Z,931.1
2018-10-01T05:42:15.764Z,931
2018-10-01T05:43:15.528Z,931.1
2018-10-01T05:44:15.268Z,931.1
2018-10-01T05:45:15.008Z,931.1
2018-10-01T05:46:14.761Z,931.1
2018-10-01T05:47:14.539Z,931.1
2018-10-01T05:48:14.717Z,931.1
2018-10-01T05:49:15.027Z,931.1
2018-10-01T05:50:14.850Z,931.2
2018-10-01T05:51:14.601Z,931.1
2018-10-01T05:52:14.521Z,931.2
2018-10-01T05:53:14.301Z,931.2
2018-10-01T05:54:14.033Z,931.2
2018-10-01T05:55:13.791Z,931.2
2018-10-01T05:56:13.551Z,931.2
2018-10-01T05:57:13.303Z,931.2
2018-10-01T05:58:14.902Z,931.2
2018-10-01T05:59:14.866Z,931.2
2018-10-01T06:00:14.773Z,931.3
2018-10-01T06:01:14.695Z,931.3
2018-10-01T06:02:14.604Z,931.3
2018-10-01T06:03:14.510Z,931.4
2018-10-01T06:04:14.462Z,931.3
2018-10-01T06:05:14.375Z,931.3
2018-10-01T06:06:14.299Z,931.4
2018-10-01T06:07:14.239Z,931.3
2018-10-01T06:08:15.605Z,931.3
2018-10-01T06:09:15.503Z,931.2
2018-10-01T06:10:15.444Z,931.4
2018-10-01T06:11:15.346Z,931.3
2018-10-01T06:12:15.239Z,931.3
2018-10-01T06:13:15.143Z,931.4
2018-10-01T06:14:15.062Z,931.4
2018-10-01T06:15:15.000Z,931.3
2018-10-01T06:16:15.170Z,931.4
2018-10-01T06:17:15.074Z,931.4
2018-10-01T06:18:15.566Z,931.4
2018-10-01T06:19:15.705Z,931.4
2018-10-01T06:20:15.619Z,931.4
2018-10-01T06:21:15.525Z,931.4
2018-10-01T06:22:15.424Z,931.5
2018-10-01T06:23:15.344Z,931.5
2018-10-01T06:24:15.243Z,931.4
2018-10-01T06:25:16.137Z,931.4
2018-10-01T06:26:16.122Z,931.4
2018-10-01T06:27:16.032Z,931.4
2018-10-01T06:28:16.391Z,931.6
2018-10-01T06:29:16.300Z,931.6
2018-10-01T06:30:16.275Z,931.4
2018-10-01T06:31:16.183Z,931.6
2018-10-01T06:32:16.080Z,931.5
2018-10-01T06:33:15.982Z,931.5
2018-10-01T06:34:15.890Z,931.5
2018-10-01T06:35:15.787Z,931.6
2018-10-01T06:36:16.383Z,931.7
2018-10-01T06:37:16.359Z,931.7
2018-10-01T06:38:16.711Z,931.7
2018-10-01T06:39:16.615Z,931.7
2018-10-01T06:40:16.524Z,931.7
2018-10-01T06:41:16.473Z,931.7
2018-10-01T06:42:17.111Z,931.7
2018-10-01T06:43:17.082Z,931.2
2018-10-01T06:44:19.999Z,931.8
2018-10-01T06:45:19.909Z,931.7
2018-10-01T06:46:19.821Z,931.8
2018-10-01T06:47:19.741Z,931.7
2018-10-01T06:48:19.921Z,931.8
2018-10-01T06:49:19.666Z,931.7
2018-10-01T06:50:19.405Z,931.7
2018-10-01T06:51:19.517Z,931.7
2018-10-01T06:52:19.316Z,931.8
2018-10-01T06:53:19.057Z,931.8
2018-10-01T06:54:18.797Z,931.8
2018-10-01T06:55:18.523Z,931.8
2018-10-01T06:56:18.282Z,931.8
2018-10-01T06:57:18.071Z,931.8
2018-10-01T06:58:18.252Z,931.9
2018-10-01T06:59:18.008Z,931.8
2018-10-01T07:00:17.749Z,931.9
2018-10-01T07:01:18.213Z,931.8
2018-10-01T07:02:18.003Z,931.9
2018-10-01T07:03:17.739Z,931.9
2018-10-01T07:04:17.481Z,931.9
2018-10-01T07:05:17.275Z,931.9
2018-10-01T07:06:17.054Z,932
2018-10-01T07:07:16.847Z,932
2018-10-01T07:08:17.335Z,931.9
2018-10-01T07:09:17.285Z,932
2018-10-01T07:10:17.177Z,932
2018-10-01T07:11:17.604Z,932
2018-10-01T07:12:17.602Z,932
2018-10-01T07:13:17.599Z,932
2018-10-01T07:14:17.508Z,932
2018-10-01T07:15:17.428Z,932.1
2018-10-01T07:16:17.752Z,932.1
2018-10-01T07:17:19.102Z,932
2018-10-01T07:18:19.717Z,932.1
2018-10-01T07:19:19.641Z,932.1
2018-10-01T07:20:19.550Z,932
2018-10-01T07:21:19.492Z,932.1
2018-10-01T07:22:19.477Z,932.1
2018-10-01T07:23:20.909Z,932.1
2018-10-01T07:24:20.920Z,932.1
2018-10-01T07:25:20.831Z,932.1
2018-10-01T07:26:20.746Z,932
2018-10-01T07:27:20.672Z,932.1
2018-10-01T07:28:21.002Z,932.1
2018-10-01T07:29:20.907Z,932.2
2018-10-01T07:30:20.816Z,932.1
2018-10-01T07:31:20.748Z,932.2
2018-10-01T07:32:20.647Z,932.2
2018-10-01T07:33:20.541Z,932.2
2018-10-01T07:34:20.441Z,932.2
2018-10-01T07:35:20.356Z,932.2
2018-10-01T07:36:20.284Z,932.2
2018-10-01T07:37:20.206Z,932
2018-10-01T07:38:20.578Z,932.1
2018-10-01T07:39:20.513Z,932.1
2018-10-01T07:40:20.414Z,932.2
2018-10-01T07:41:20.346Z,932
2018-10-01T07:42:20.282Z,932.1
2018-10-01T07:43:20.194Z,932.2
2018-10-01T07:44:20.103Z,932.1
2018-10-01T07:45:21.971Z,932.1
2018-10-01T07:46:23.106Z,932.1
2018-10-01T07:47:23.158Z,932.2
2018-10-01T07:48:23.699Z,932.2
2018-10-01T07:49:23.595Z,932.2
2018-10-01T07:50:23.526Z,932.2
2018-10-01T07:51:23.551Z,932.2
2018-10-01T07:52:23.497Z,932.1
2018-10-01T07:53:23.839Z,932.1
2018-10-01T07:54:23.839Z,932.2
2018-10-01T07:55:23.756Z,932.2
2018-10-01T07:56:23.683Z,932.3
2018-10-01T07:57:23.825Z,932.2
2018-10-01T07:58:24.222Z,932.2
2018-10-01T07:59:24.675Z,932.2
2018-10-01T08:00:25.170Z,932.3
2018-10-01T08:01:25.121Z,932.2
2018-10-01T08:02:25.256Z,932.3
2018-10-01T08:03:25.163Z,932.3
2018-10-01T08:04:25.064Z,932.3
2018-10-01T08:05:24.985Z,932.3
2018-10-01T08:06:24.985Z,932.3
2018-10-01T08:07:24.909Z,932.3
2018-10-01T08:08:25.601Z,932.3
2018-10-01T08:09:26.390Z,932.3
2018-10-01T08:10:26.334Z,932.3
2018-10-01T08:11:26.241Z,932.4
2018-10-01T08:12:26.158Z,932.4
2018-10-01T08:13:26.059Z,932.4
2018-10-01T08:14:26.451Z,932.4
2018-10-01T08:15:26.383Z,932.4
2018-10-01T08:16:26.302Z,932.4
2018-10-01T08:17:26.228Z,932.4
2018-10-01T08:18:26.565Z,932.4
2018-10-01T08:19:26.479Z,932.5
2018-10-01T08:20:26.679Z,932.4
2018-10-01T08:21:26.657Z,932.6
2018-10-01T08:22:26.579Z,932.5
2018-10-01T08:23:26.865Z,932.5
2018-10-01T08:24:26.828Z,932.6
2018-10-01T08:25:26.754Z,932.6
2018-10-01T08:26:26.938Z,932.5
2018-10-01T08:27:26.883Z,932.6
2018-10-01T08:28:27.244Z,932.6
2018-10-01T08:29:27.506Z,932.7
2018-10-01T08:30:27.427Z,932.5
2018-10-01T08:31:27.365Z,932.6
2018-10-01T08:32:27.596Z,932.6
2018-10-01T08:33:27.530Z,932.7
2018-10-01T08:34:27.453Z,932.6
2018-10-01T08:35:27.773Z,932.5
2018-10-01T08:36:27.745Z,932.7
2018-10-01T08:37:27.651Z,932.7
2018-10-01T08:38:29.004Z,932.7
2018-10-01T08:39:28.964Z,932.8
2018-10-01T08:40:28.869Z,932.7
2018-10-01T08:41:29.336Z,932.7
2018-10-01T08:42:29.324Z,932.8
2018-10-01T08:43:29.266Z,932.4
2018-10-01T08:44:29.711Z,932.7
2018-10-01T08:45:29.636Z,932.7
2018-10-01T08:46:29.529Z,932.9
2018-10-01T08:47:29.710Z,932.9
2018-10-01T08:48:30.197Z,932.9
2018-10-01T08:49:30.096Z,933
2018-10-01T08:50:30.530Z,932.8
2018-10-01T08:51:30.599Z,933
2018-10-01T08:52:30.519Z,933
2018-10-01T08:53:30.983Z,933.1
2018-10-01T08:54:30.973Z,933
2018-10-01T08:55:30.891Z,933.1
2018-10-01T08:56:31.248Z,933.2
2018-10-01T08:57:31.186Z,933.2
2018-10-01T08:58:31.528Z,933.3
2018-10-01T08:59:32.122Z,933.3
2018-10-01T09:00:32.057Z,933.4
2018-10-01T09:01:31.963Z,933.5
2018-10-01T09:02:32.501Z,933.5
2018-10-01T09:03:32.492Z,933.5
2018-10-01T09:04:32.442Z,933.5
2018-10-01T09:05:32.956Z,933.5
2018-10-01T09:06:32.899Z,933.3
2018-10-01T09:07:32.805Z,933.4
2018-10-01T09:08:34.075Z,933.5
2018-10-01T09:09:34.081Z,933.6
2018-10-01T09:10:33.994Z,933.7
2018-10-01T09:11:34.466Z,933.7
2018-10-01T09:12:34.466Z,933.6
2018-10-01T09:13:34.386Z,933.3
2018-10-01T09:14:35.113Z,933.7
2018-10-01T09:15:35.111Z,933.6
2018-10-01T09:16:35.047Z,933.7
2018-10-01T09:17:35.611Z,933.7
2018-10-01T09:18:36.014Z,933.8
2018-10-01T09:19:35.770Z,933.8
2018-10-01T09:20:35.957Z,933.7
2018-10-01T09:21:35.935Z,933.8
2018-10-01T09:22:35.765Z,933.7
2018-10-01T09:23:35.890Z,933.8
2018-10-01T09:24:35.685Z,933.8
2018-10-01T09:25:35.415Z,933.9
2018-10-01T09:26:35.430Z,933.9
2018-10-01T09:27:35.257Z,933.9
2018-10-01T09:28:35.448Z,934
2018-10-01T09:29:35.525Z,934
2018-10-01T09:30:35.371Z,934.1
2018-10-01T09:31:35.131Z,933.7
2018-10-01T09:32:35.357Z,934.1
2018-10-01T09:33:35.146Z,934.1
2018-10-01T09:34:34.885Z,934.2
2018-10-01T09:35:35.215Z,934.2
2018-10-01T09:36:35.106Z,934.3
2018-10-01T09:37:34.847Z,934.1
2018-10-01T09:38:36.412Z,933.9
2018-10-01T09:39:36.420Z,934
2018-10-01T09:40:37.000Z,934.1
2018-10-01T09:41:36.987Z,934.2
2018-10-01T09:42:36.903Z,934.2
2018-10-01T09:43:36.821Z,934.3
2018-10-01T09:44:37.481Z,934.2
2018-10-01T09:45:37.451Z,934.3
2018-10-01T09:46:38.178Z,934.3
2018-10-01T09:47:38.108Z,934.3
2018-10-01T09:48:38.853Z,934.4
2018-10-01T09:49:38.595Z,934.3
2018-10-01T09:50:38.341Z,934.4
2018-10-01T09:51:38.092Z,934.5
2018-10-01T09:52:37.874Z,934.5
2018-10-01T09:53:37.797Z,934.5
2018-10-01T09:54:37.534Z,934.5
2018-10-01T09:55:37.275Z,934.5
2018-10-01T09:56:37.412Z,934.5
2018-10-01T09:57:37.281Z,934.5
2018-10-01T09:58:38.614Z,934.6
2018-10-01T09:59:38.593Z,934.5
2018-10-01T10:00:38.497Z,934.1
2018-10-01T10:01:38.424Z,934.6
2018-10-01T10:02:39.061Z,934.7
2018-10-01T10:03:39.031Z,934.6
2018-10-01T10:04:40.167Z,934.6
2018-10-01T10:05:40.236Z,934.7
2018-10-01T10:06:40.159Z,934.5
2018-10-01T10:07:40.058Z,934.7
2018-10-01T10:08:42.038Z,934.7
2018-10-01T10:09:42.005Z,934.7
2018-10-01T10:10:41.923Z,934.5
2018-10-01T10:11:41.879Z,934.7
2018-10-01T10:12:41.794Z,934.7
2018-10-01T10:13:41.705Z,934.7
2018-10-01T10:14:42.405Z,934.7
2018-10-01T10:15:42.347Z,934.8
2018-10-01T10:16:43.368Z,934.8
2018-10-01T10:17:43.377Z,934.8
2018-10-01T10:18:47.671Z,934.8
2018-10-01T10:19:47.569Z,934.8
2018-10-01T10:20:47.480Z,934.8
2018-10-01T10:21:47.409Z,934.8
2018-10-01T10:22:47.550Z,934.8
2018-10-01T10:23:47.467Z,934.8
2018-10-01T10:24:47.367Z,934.9
2018-10-01T10:25:47.520Z,934.9
2018-10-01T10:26:47.426Z,934.8
2018-10-01T10:27:47.353Z,934.9
2018-10-01T10:28:47.893Z,934.8
2018-10-01T10:29:47.801Z,934.9
2018-10-01T10:30:47.708Z,934.9
2018-10-01T10:31:47.607Z,934.8
2018-10-01T10:32:47.534Z,935
2018-10-01T10:33:47.446Z,934.9
2018-10-01T10:34:47.353Z,934.9
2018-10-01T10:35:47.272Z,935
2018-10-01T10:36:47.410Z,935
2018-10-01T10:37:47.309Z,934.9
2018-10-01T10:38:47.746Z,934.9
2018-10-01T10:39:47.649Z,934.9
2018-10-01T10:40:47.551Z,934.9
2018-10-01T10:41:48.299Z,934.9
2018-10-01T10:42:48.284Z,934.8
2018-10-01T10:43:48.211Z,935.1
2018-10-01T10:44:48.132Z,935
2018-10-01T10:45:48.053Z,935.1
2018-10-01T10:46:47.970Z,935
2018-10-01T10:47:47.909Z,935
2018-10-01T10:48:48.153Z,935
2018-10-01T10:49:50.648Z,935
2018-10-01T10:50:50.421Z,935
2018-10-01T10:51:50.196Z,935
2018-10-01T10:52:49.927Z,935
2018-10-01T10:53:49.672Z,935
2018-10-01T10:54:49.476Z,935.1
2018-10-01T10:55:49.218Z,935.1
2018-10-01T10:56:49.417Z,935.1
2018-10-01T10:57:49.171Z,935.1
2018-10-01T10:58:49.397Z,935
2018-10-01T10:59:49.132Z,935.1
2018-10-01T11:00:48.874Z,935.2
2018-10-01T11:01:48.621Z,935.1
2018-10-01T11:02:48.354Z,935.1
2018-10-01T11:03:48.091Z,935.1
2018-10-01T11:04:47.842Z,935.2
2018-10-01T11:05:47.594Z,935.2
2018-10-01T11:06:47.356Z,935.1
2018-10-01T11:07:47.112Z,935.2
2018-10-01T11:08:48.740Z,935.2
2018-10-01T11:09:48.666Z,935.2
2018-10-01T11:10:48.588Z,935.1
2018-10-01T11:11:48.513Z,935.1
2018-10-01T11:12:48.416Z,935.1
2018-10-01T11:13:48.547Z,935.2
2018-10-01T11:14:50.116Z,935.2
2018-10-01T11:15:50.063Z,934.8
2018-10-01T11:16:50.269Z,935.1
2018-10-01T11:17:50.202Z,935.3
2018-10-01T11:18:52.986Z,935.2
2018-10-01T11:19:53.623Z,935.1
2018-10-01T11:20:54.287Z,935.2
2018-10-01T11:21:54.867Z,935.2
2018-10-01T11:22:54.959Z,935.1
2018-10-01T11:23:54.937Z,935.2
2018-10-01T11:24:54.894Z,935.2
2018-10-01T11:25:54.796Z,935.2
2018-10-01T11:26:55.112Z,935
2018-10-01T11:27:56.165Z,935.1
2018-10-01T11:28:57.121Z,935.2
2018-10-01T11:29:56.907Z,935.1
2018-10-01T11:30:56.649Z,935.2
2018-10-01T11:31:57.217Z,935.1
2018-10-01T11:32:57.305Z,935.2
2018-10-01T11:33:57.123Z,935.3
2018-10-01T11:34:57.309Z,935.2
2018-10-01T11:35:57.171Z,935
2018-10-01T11:36:56.973Z,935.3
2018-10-01T11:37:56.740Z,935.2
2018-10-01T11:38:57.243Z,935.3
2018-10-01T11:39:57.169Z,935.4
2018-10-01T11:40:57.086Z,935.3
2018-10-01T11:41:57.099Z,935.2
2018-10-01T11:42:56.999Z,935.3
2018-10-01T11:43:57.151Z,935.4
2018-10-01T11:44:57.256Z,935.3
2018-10-01T11:45:57.198Z,935.4
2018-10-01T11:46:57.119Z,935.3
2018-10-01T11:47:57.083Z,935.3
2018-10-01T11:48:57.518Z,935.3
2018-10-01T11:49:57.443Z,935.2
2018-10-01T11:50:57.687Z,935.4
2018-10-01T11:51:57.757Z,935.4
2018-10-01T11:52:57.663Z,935.3
2018-10-01T11:53:57.571Z,935.4
2018-10-01T11:54:57.471Z,935.3
2018-10-01T11:55:57.448Z,935.4
2018-10-01T11:56:57.631Z,935.4
2018-10-01T11:57:57.589Z,935.4
2018-10-01T11:58:57.937Z,934.8
2018-10-01T11:59:58.064Z,935.4
2018-10-01T12:00:57.971Z,935.3
2018-10-01T12:01:57.904Z,935.4
2018-10-01T12:02:58.103Z,935.2
2018-10-01T12:03:58.742Z,935.3
2018-10-01T12:04:58.739Z,935.3
2018-10-01T12:05:58.648Z,935.3
2018-10-01T12:06:58.595Z,935.2
2018-10-01T12:07:58.490Z,935.3
2018-10-01T12:08:58.869Z,934.8
2018-10-01T12:09:59.090Z,935.3
2018-10-01T12:10:58.834Z,935.4
2018-10-01T12:11:58.568Z,935.4
2018-10-01T12:12:58.316Z,935.4
2018-10-01T12:13:58.083Z,935.4
2018-10-01T12:14:58.192Z,935.3
2018-10-01T12:15:59.203Z,935.3
2018-10-01T12:16:59.124Z,935.3
2018-10-01T12:17:58.863Z,935.3
2018-10-01T12:18:59.254Z,935.3
2018-10-01T12:19:59.224Z,935.4
2018-10-01T12:20:59.520Z,935.4
2018-10-01T12:21:59.740Z,935.3
2018-10-01T12:22:59.696Z,935.4
2018-10-01T12:23:59.612Z,935.3
2018-10-01T12:24:59.540Z,935.2
2018-10-01T12:25:59.440Z,935.3
2018-10-01T12:26:59.686Z,935.3
2018-10-01T12:27:59.615Z,935.4
2018-10-01T12:29:00.264Z,935.4
2018-10-01T12:30:00.260Z,935.4
2018-10-01T12:31:00.172Z,935.3
2018-10-01T12:32:00.064Z,935.4
2018-10-01T12:33:00.232Z,935.3
2018-10-01T12:34:00.154Z,935.4
2018-10-01T12:35:00.401Z,935.4
2018-10-01T12:36:00.414Z,935.3
2018-10-01T12:37:00.314Z,935.3
2018-10-01T12:38:00.219Z,935.3
2018-10-01T12:39:01.165Z,935.3
2018-10-01T12:40:01.116Z,935.3
2018-10-01T12:41:01.044Z,935.4
2018-10-01T12:42:00.947Z,935.4
2018-10-01T12:43:01.983Z,935.4
2018-10-01T12:44:02.049Z,935.4
2018-10-01T12:45:02.425Z,935.4
2018-10-01T12:46:02.355Z,935.3
2018-10-01T12:47:02.293Z,935.3
2018-10-01T12:48:02.233Z,935.3
2018-10-01T12:49:02.686Z,935.3
2018-10-01T12:50:02.695Z,935.3
2018-10-01T12:51:02.898Z,935.3
2018-10-01T12:52:02.831Z,935.4
2018-10-01T12:53:02.733Z,935.4
2018-10-01T12:54:02.645Z,935.4
2018-10-01T12:55:02.596Z,935.3
2018-10-01T12:56:02.499Z,935.4
2018-10-01T12:57:02.637Z,935.4
2018-10-01T12:58:02.562Z,935.4
2018-10-01T12:59:02.932Z,935.3